Time;durP1;ratioP1;P1;durP2;ratioP2;P2;SDS_P1;SDS_P2;PMS_P1;PMS_P2;Temp;Humidity;BMP_temperature;BMP_pressure;BME280_temperature;BME280_humidity;BME280_pressure;Samples;Min_cycle;Max_cycle;Signal;HPM_P1;HPM_P2
2022/06/19 00:03:05;;;;;;;6.88;4.32;;;;;;;17.23;100.00;99526.94;5103760;28;20058;-59
2022/06/19 00:05:49;;;;;;;6.40;3.72;;;;;;;17.19;100.00;99526.25;5099079;28;20048;-59
2022/06/19 00:08:34;;;;;;;5.00;3.92;;;;;;;17.19;100.00;99522.72;5100474;28;20040;-58
2022/06/19 00:11:21;;;;;;;4.25;2.92;;;;;;;17.11;100.00;99517.88;5101154;27;20047;-60
2022/06/19 00:14:07;;;;;;;5.95;3.50;;;;;;;17.20;100.00;99516.53;5102846;27;20054;-55
2022/06/19 00:16:52;;;;;;;3.85;3.10;;;;;;;17.12;100.00;99516.94;5103522;27;20047;-60
2022/06/19 00:19:37;;;;;;;5.50;3.67;;;;;;;17.05;100.00;99510.28;5103048;27;20410;-62
2022/06/19 00:22:21;;;;;;;6.97;4.03;;;;;;;17.07;100.00;99513.72;5104710;28;20044;-56
2022/06/19 00:25:07;;;;;;;4.32;3.17;;;;;;;17.08;100.00;99509.28;5102261;27;20055;-61
2022/06/19 00:27:53;;;;;;;4.82;3.25;;;;;;;17.02;100.00;99519.25;5102292;28;20051;-65
2022/06/19 00:30:38;;;;;;;3.35;2.88;;;;;;;17.00;100.00;99504.41;5101879;27;20051;-60
2022/06/19 00:33:22;;;;;;;4.47;2.83;;;;;;;16.91;100.00;99508.41;5104480;28;20916;-64
2022/06/19 00:36:07;;;;;;;9.10;3.20;;;;;;;16.88;100.00;99489.22;5106127;28;20055;-59
2022/06/19 00:38:51;;;;;;;5.00;3.05;;;;;;;16.90;100.00;99503.19;5106701;27;20043;-57
2022/06/19 00:41:41;;;;;;;6.65;3.10;;;;;;;16.90;100.00;99497.91;5108079;27;20051;-59
2022/06/19 00:44:25;;;;;;;4.95;3.58;;;;;;;16.81;100.00;99509.88;5106804;27;20059;-60
2022/06/19 00:47:19;;;;;;;4.80;3.85;;;;;;;16.70;100.00;99491.91;5106532;28;20314;-61
2022/06/19 00:50:12;;;;;;;7.35;3.58;;;;;;;16.81;100.00;99510.72;5108099;27;20039;-60
2022/06/19 00:52:59;;;;;;;6.15;3.67;;;;;;;16.73;100.00;99499.66;5105790;27;20059;-58
2022/06/19 00:55:46;;;;;;;4.78;3.50;;;;;;;16.69;100.00;99510.50;5105795;27;20043;-59
2022/06/19 00:58:38;;;;;;;5.55;3.08;;;;;;;16.74;100.00;99501.41;5104991;28;20043;-56
2022/06/19 01:01:25;;;;;;;4.80;2.78;;;;;;;16.70;100.00;99504.28;5106786;27;20043;-59
2022/06/19 01:04:35;;;;;;;3.40;3.03;;;;;;;16.58;100.00;99509.31;5100895;28;20047;-59
2022/06/19 01:07:23;;;;;;;2.40;2.20;;;;;;;16.66;100.00;99508.88;5104079;27;20047;-60
2022/06/19 01:10:10;;;;;;;3.70;2.50;;;;;;;16.57;100.00;99504.09;5106113;27;20043;-61
2022/06/19 01:12:56;;;;;;;4.78;3.00;;;;;;;16.60;100.00;99504.78;5101929;27;20055;-64
2022/06/19 01:15:42;;;;;;;4.75;2.58;;;;;;;16.50;100.00;99494.78;5104948;27;20375;-57
2022/06/19 01:18:26;;;;;;;7.85;2.53;;;;;;;16.54;100.00;99502.50;5103008;27;20039;-62
2022/06/19 01:21:23;;;;;;;4.07;2.25;;;;;;;16.56;100.00;99500.59;5100420;27;20040;-61
2022/06/19 01:24:08;;;;;;;5.00;2.70;;;;;;;16.46;100.00;99503.84;5103522;27;20486;-61
2022/06/19 01:26:59;;;;;;;4.25;2.45;;;;;;;16.42;100.00;99504.94;5101719;27;20040;-59
2022/06/19 01:29:43;;;;;;;7.00;3.35;;;;;;;16.41;100.00;99505.84;5101532;27;20883;-60
2022/06/19 01:32:28;;;;;;;2.40;2.20;;;;;;;16.42;100.00;99503.16;5103184;27;20055;-58
2022/06/19 01:35:14;;;;;;;3.28;2.97;;;;;;;16.43;100.00;99506.63;5101017;27;20044;-56
2022/06/19 01:38:01;;;;;;;3.40;2.60;;;;;;;16.45;100.00;99505.63;5103006;28;20036;-58
2022/06/19 01:40:52;;;;;;;4.07;2.92;;;;;;;16.26;100.00;99487.25;5106775;27;20043;-58
2022/06/19 01:43:37;;;;;;;3.85;2.80;;;;;;;16.32;100.00;99486.94;5102539;28;20669;-56
2022/06/19 01:46:23;;;;;;;2.85;2.50;;;;;;;16.38;100.00;99501.63;5100375;27;20032;-61
2022/06/19 01:49:08;;;;;;;2.50;2.22;;;;;;;16.37;100.00;99505.16;5101623;28;20470;-61
2022/06/19 01:51:52;;;;;;;3.58;2.65;;;;;;;16.27;100.00;99502.16;5100589;27;20051;-62
2022/06/19 01:54:42;;;;;;;4.03;2.67;;;;;;;16.20;100.00;99502.59;5102599;28;20071;-59
2022/06/19 01:57:27;;;;;;;2.38;2.15;;;;;;;16.22;100.00;99485.72;5103980;27;20202;-57
2022/06/19 02:00:20;;;;;;;2.50;2.30;;;;;;;16.29;100.00;99502.09;5101989;27;20148;-61
2022/06/19 02:03:08;;;;;;;3.25;2.15;;;;;;;16.20;100.00;99505.22;5101967;28;20421;-57
2022/06/19 02:05:54;;;;;;;2.47;2.28;;;;;;;16.20;100.00;99511.38;5102539;27;20039;-60
2022/06/19 02:08:40;;;;;;;3.03;2.55;;;;;;;16.21;100.00;99513.06;5101311;28;20040;-56
2022/06/19 02:11:25;;;;;;;5.97;3.05;;;;;;;16.23;100.00;99508.56;5100837;27;20502;-58
2022/06/19 02:14:13;;;;;;;3.88;2.53;;;;;;;16.18;100.00;99512.38;5101555;27;20047;-59
2022/06/19 02:17:03;;;;;;;2.40;2.20;;;;;;;16.25;100.00;99506.69;5098293;28;20097;-62
2022/06/19 02:19:48;;;;;;;2.88;2.38;;;;;;;16.21;100.00;99501.63;5102374;27;20043;-59
2022/06/19 02:22:32;;;;;;;2.80;2.58;;;;;;;16.15;100.00;99501.97;5102991;27;20101;-59
2022/06/19 02:25:17;;;;;;;4.38;2.85;;;;;;;16.17;100.00;99510.66;5098967;28;20071;-61
2022/06/19 02:28:03;;;;;;;3.13;2.83;;;;;;;16.13;100.00;99502.91;5101386;27;20048;-62
2022/06/19 02:30:48;;;;;;;8.93;3.25;;;;;;;16.07;100.00;99497.94;5103919;27;20040;-60
2022/06/19 02:33:40;;;;;;;3.75;2.80;;;;;;;16.11;100.00;99499.47;5100813;27;20055;-62
2022/06/19 02:36:32;;;;;;;3.72;2.38;;;;;;;16.10;100.00;99491.66;5104647;28;20487;-63
2022/06/19 02:39:42;;;;;;;5.25;2.78;;;;;;;16.08;100.00;99496.16;5102492;27;20390;-59
2022/06/19 02:42:37;;;;;;;4.13;3.60;;;;;;;15.97;100.00;99490.59;5099165;28;20417;-60
2022/06/19 02:45:26;;;;;;;5.45;3.55;;;;;;;16.03;100.00;99490.28;5101075;28;20439;-55
2022/06/19 02:48:18;;;;;;;6.90;3.42;;;;;;;16.03;100.00;99490.28;5100292;28;20048;-58
2022/06/19 02:51:04;;;;;;;4.47;3.42;;;;;;;16.01;100.00;99476.28;5101102;28;20096;-61
2022/06/19 02:53:48;;;;;;;5.45;3.17;;;;;;;16.07;100.00;99481.25;5101173;28;20059;-57
2022/06/19 02:56:33;;;;;;;3.05;2.65;;;;;;;16.05;100.00;99476.06;5100822;27;20077;-62
2022/06/19 02:59:17;;;;;;;3.33;3.03;;;;;;;16.08;100.00;99481.16;5100855;28;20040;-58
2022/06/19 03:02:03;;;;;;;3.20;2.65;;;;;;;16.04;100.00;99461.13;5103890;28;20035;-62
2022/06/19 03:04:53;;;;;;;3.20;2.80;;;;;;;16.16;100.00;99464.91;5103717;28;20543;-63
2022/06/19 03:07:38;;;;;;;3.20;2.90;;;;;;;16.13;100.00;99462.44;5099714;28;20048;-58
2022/06/19 03:10:22;;;;;;;3.55;3.00;;;;;;;16.27;100.00;99459.88;5105746;27;20036;-58
2022/06/19 03:13:06;;;;;;;4.28;2.90;;;;;;;16.29;100.00;99460.66;5102572;27;20482;-56
2022/06/19 03:16:07;;;;;;;4.10;3.13;;;;;;;16.30;100.00;99453.59;5109610;27;20047;-59
2022/06/19 03:18:53;;;;;;;5.78;3.05;;;;;;;16.29;100.00;99444.81;5100126;28;20044;-59
2022/06/19 03:21:37;;;;;;;7.68;3.58;;;;;;;16.41;100.00;99442.44;5110581;27;20046;-62
2022/06/19 03:24:23;;;;;;;3.40;3.05;;;;;;;16.43;100.00;99440.56;5102489;28;20052;-57
2022/06/19 03:27:09;;;;;;;3.17;2.85;;;;;;;16.51;100.00;99441.88;5107621;28;20051;-63
2022/06/19 03:29:54;;;;;;;3.95;3.10;;;;;;;16.57;100.00;99436.25;5102951;28;20043;-60
2022/06/19 03:32:38;;;;;;;5.90;3.03;;;;;;;16.67;100.00;99428.66;5103999;28;20416;-58
2022/06/19 03:35:23;;;;;;;5.57;3.38;;;;;;;16.53;100.00;99420.63;5102638;28;20395;-56
2022/06/19 03:38:07;;;;;;;3.70;2.88;;;;;;;16.65;100.00;99419.09;5102287;28;20044;-60
2022/06/19 03:40:52;;;;;;;5.85;2.85;;;;;;;16.69;100.00;99413.53;5100658;28;20078;-61
2022/06/19 03:43:37;;;;;;;3.58;2.65;;;;;;;16.77;100.00;99406.06;5103334;28;20048;-60
2022/06/19 03:46:21;;;;;;;5.03;2.88;;;;;;;16.99;100.00;99415.41;5105740;27;20036;-60
2022/06/19 03:49:06;;;;;;;4.05;2.30;;;;;;;17.02;100.00;99402.84;5102830;28;20040;-64
2022/06/19 03:51:50;;;;;;;6.25;2.85;;;;;;;16.98;100.00;99400.47;5107149;27;20133;-61
2022/06/19 03:54:35;;;;;;;8.85;2.63;;;;;;;17.07;100.00;99402.59;5103701;27;20047;-64
2022/06/19 03:57:19;;;;;;;4.07;2.00;;;;;;;17.38;100.00;99406.06;5111814;27;20043;-58
2022/06/19 04:00:04;;;;;;;2.78;2.33;;;;;;;17.56;100.00;99412.06;5107103;27;20043;-64
2022/06/19 04:02:56;;;;;;;5.07;2.03;;;;;;;17.69;100.00;99411.25;5104060;27;20051;-61
2022/06/19 04:05:40;;;;;;;3.17;2.13;;;;;;;17.92;100.00;99420.47;5105226;28;20035;-59
2022/06/19 04:08:25;;;;;;;2.65;2.00;;;;;;;18.05;100.00;99417.06;5113402;27;20039;-58
2022/06/19 04:11:09;;;;;;;4.10;2.38;;;;;;;18.29;100.00;99419.97;5107999;27;20664;-60
2022/06/19 04:13:54;;;;;;;4.20;2.47;;;;;;;18.50;100.00;99420.44;5108588;27;20039;-63
2022/06/19 04:16:39;;;;;;;2.45;2.00;;;;;;;18.47;100.00;99408.22;5107981;27;20040;-59
2022/06/19 04:19:24;;;;;;;2.40;1.88;;;;;;;18.68;100.00;99416.56;5105503;27;20044;-62
2022/06/19 04:22:09;;;;;;;1.65;1.55;;;;;;;18.98;100.00;99408.47;5107489;27;20439;-57
2022/06/19 04:24:53;;;;;;;4.50;2.03;;;;;;;19.24;100.00;99401.44;5103901;27;20063;-65
2022/06/19 04:27:39;;;;;;;4.45;1.92;;;;;;;19.48;100.00;99398.91;5109200;27;20444;-63
2022/06/19 04:30:24;;;;;;;2.88;2.08;;;;;;;19.40;100.00;99398.56;5104863;27;20496;-58
2022/06/19 04:33:09;;;;;;;2.38;1.95;;;;;;;19.64;100.00;99390.78;5107132;27;20035;-62
2022/06/19 04:35:54;;;;;;;2.60;1.58;;;;;;;19.54;100.00;99387.00;5104436;27;20050;-61
2022/06/19 04:38:40;;;;;;;2.28;1.35;;;;;;;20.07;100.00;99393.91;5105351;27;20470;-64
2022/06/19 04:41:46;;;;;;;1.55;1.20;;;;;;;20.37;100.00;99410.47;5103948;27;20048;-60
2022/06/19 04:44:30;;;;;;;2.65;1.42;;;;;;;20.67;100.00;99399.44;5108675;27;20044;-63
2022/06/19 04:47:15;;;;;;;2.50;1.50;;;;;;;20.69;100.00;99398.34;5105376;27;20044;-59
2022/06/19 04:49:59;;;;;;;2.08;1.35;;;;;;;21.15;100.00;99399.41;5108824;27;20390;-60
2022/06/19 04:52:44;;;;;;;3.17;1.70;;;;;;;21.14;100.00;99401.25;5105943;28;20056;-59
2022/06/19 04:55:28;;;;;;;1.50;1.10;;;;;;;21.39;100.00;99408.25;5104563;27;20040;-64
2022/06/19 04:58:13;;;;;;;2.20;1.30;;;;;;;21.54;100.00;99392.91;5107423;28;20040;-58
2022/06/19 05:00:57;;;;;;;2.25;1.20;;;;;;;21.59;100.00;99409.41;5104622;27;20035;-63
2022/06/19 05:03:41;;;;;;;1.85;1.40;;;;;;;21.67;100.00;99403.47;5104179;27;20051;-61
2022/06/19 05:06:27;;;;;;;2.80;1.67;;;;;;;21.66;100.00;99399.97;5104728;27;20200;-60
2022/06/19 05:09:12;;;;;;;1.95;1.10;;;;;;;21.93;100.00;99402.28;5104221;27;20043;-58
2022/06/19 05:11:56;;;;;;;2.63;1.95;;;;;;;21.93;100.00;99399.59;5104009;27;20079;-59
2022/06/19 05:14:40;;;;;;;1.80;1.50;;;;;;;21.64;100.00;99388.59;5104041;28;20044;-62
2022/06/19 05:17:25;;;;;;;3.08;1.65;;;;;;;21.56;100.00;99393.66;5108625;27;20688;-64
2022/06/19 05:20:10;;;;;;;3.53;1.50;;;;;;;22.05;100.00;99383.63;5108729;27;20048;-60
2022/06/19 05:22:55;;;;;;;5.38;1.60;;;;;;;22.30;100.00;99380.75;5105486;27;20142;-62
2022/06/19 05:25:39;;;;;;;1.95;1.45;;;;;;;22.47;100.00;99383.88;5104369;27;20040;-61
2022/06/19 05:28:23;;;;;;;3.83;1.80;;;;;;;22.06;100.00;99390.66;5107723;27;20411;-61
2022/06/19 05:31:08;;;;;;;3.20;1.60;;;;;;;22.32;100.00;99388.59;5103782;27;20047;-59
2022/06/19 05:33:53;;;;;;;3.80;1.50;;;;;;;22.29;100.00;99384.34;5104910;27;20050;-59
2022/06/19 05:36:38;;;;;;;2.97;1.25;;;;;;;22.38;100.00;99388.97;5105077;27;20051;-61
2022/06/19 05:39:22;;;;;;;2.85;1.73;;;;;;;22.57;100.00;99387.47;5102943;27;20079;-61
2022/06/19 05:42:07;;;;;;;2.33;1.65;;;;;;;22.81;100.00;99385.50;5103608;28;20055;-60
2022/06/19 05:44:52;;;;;;;5.22;1.67;;;;;;;22.98;100.00;99378.78;5103296;27;20047;-63
2022/06/19 05:47:36;;;;;;;1.75;1.30;;;;;;;23.09;100.00;99373.38;5101376;28;20051;-66
2022/06/19 05:50:20;;;;;;;4.00;1.35;;;;;;;23.13;100.00;99375.78;5103086;28;20060;-60
2022/06/19 05:53:05;;;;;;;3.25;1.30;;;;;;;23.24;100.00;99362.38;5104708;27;20048;-63
2022/06/19 05:55:49;;;;;;;3.10;1.45;;;;;;;23.86;100.00;99363.34;5103291;28;20463;-60
2022/06/19 05:58:35;;;;;;;2.28;1.50;;;;;;;23.68;100.00;99371.09;5105496;27;20484;-60
2022/06/19 06:01:21;;;;;;;4.40;1.40;;;;;;;24.12;100.00;99355.72;5103613;27;20478;-62
2022/06/19 06:04:06;;;;;;;2.10;1.20;;;;;;;24.05;100.00;99360.75;5103749;28;20043;-62
2022/06/19 06:06:50;;;;;;;4.85;1.50;;;;;;;24.42;100.00;99363.69;5103378;28;20048;-64
2022/06/19 06:09:35;;;;;;;4.38;1.40;;;;;;;24.54;100.00;99355.56;5103453;28;20096;-62
2022/06/19 06:12:19;;;;;;;2.90;1.60;;;;;;;24.60;100.00;99353.19;5099983;27;20036;-64
2022/06/19 06:15:04;;;;;;;6.22;1.20;;;;;;;24.69;100.00;99352.31;5104004;28;20051;-61
2022/06/19 06:17:49;;;;;;;3.35;1.17;;;;;;;24.46;100.00;99348.22;5101407;27;20051;-62
2022/06/19 06:20:33;;;;;;;2.45;1.23;;;;;;;24.88;100.00;99345.28;5101898;27;20122;-61
2022/06/19 06:23:18;;;;;;;2.05;1.10;;;;;;;24.96;100.00;99348.13;5107266;27;20097;-63
2022/06/19 06:26:02;;;;;;;1.50;1.20;;;;;;;25.47;100.00;99343.44;5099940;27;20055;-61
2022/06/19 06:28:49;;;;;;;1.73;1.10;;;;;;;25.71;100.00;99338.44;5104102;27;20044;-61
2022/06/19 06:31:34;;;;;;;2.08;0.90;;;;;;;25.63;100.00;99335.63;5099988;27;20062;-62
2022/06/19 06:34:18;;;;;;;2.30;1.42;;;;;;;26.19;100.00;99333.84;5098241;27;20035;-60
2022/06/19 06:37:03;;;;;;;3.55;1.08;;;;;;;25.91;100.00;99333.03;5102237;27;20052;-64
2022/06/19 06:39:48;;;;;;;2.45;1.30;;;;;;;25.91;100.00;99338.38;5097968;27;20070;-61
2022/06/19 06:42:33;;;;;;;2.88;1.30;;;;;;;25.97;100.00;99345.84;5105637;27;20473;-63
2022/06/19 06:45:17;;;;;;;6.85;1.30;;;;;;;26.56;100.00;99348.06;5104184;27;20051;-62
2022/06/19 06:48:02;;;;;;;2.13;1.10;;;;;;;26.84;100.00;99355.22;5101430;27;20058;-63
2022/06/19 06:50:47;;;;;;;6.13;1.00;;;;;;;27.08;100.00;99354.63;5101448;27;20429;-59
2022/06/19 06:53:32;;;;;;;3.33;1.30;;;;;;;26.92;98.21;99358.84;5106931;27;20047;-61
2022/06/19 06:56:17;;;;;;;2.42;0.90;;;;;;;27.42;100.00;99358.25;5100108;27;20040;-61
2022/06/19 06:59:02;;;;;;;3.03;0.90;;;;;;;27.61;98.47;99351.84;5100861;28;20421;-62
2022/06/19 07:01:47;;;;;;;5.53;1.15;;;;;;;27.22;97.65;99356.78;5104835;27;20047;-61
2022/06/19 07:04:31;;;;;;;3.38;1.00;;;;;;;27.61;91.36;99353.69;5101883;27;20052;-61
2022/06/19 07:07:17;;;;;;;3.65;1.20;;;;;;;27.41;90.17;99356.56;5109182;27;20051;-61
2022/06/19 07:10:01;;;;;;;1.98;1.15;;;;;;;27.34;90.16;99355.53;5103058;27;20589;-63
2022/06/19 07:12:47;;;;;;;4.03;0.90;;;;;;;27.23;90.65;99350.38;5102266;28;20052;-62
2022/06/19 07:15:33;;;;;;;2.22;0.50;;;;;;;28.15;87.96;99341.72;5104829;27;20048;-61
2022/06/19 07:18:19;;;;;;;1.48;0.73;;;;;;;28.46;87.75;99340.34;5098604;28;20044;-65
2022/06/19 07:21:04;;;;;;;2.55;1.02;;;;;;;28.12;87.32;99333.97;5101332;27;20050;-65
2022/06/19 07:23:49;;;;;;;1.80;0.88;;;;;;;28.52;84.70;99327.03;5105261;27;20055;-61
2022/06/19 07:26:33;;;;;;;2.90;0.90;;;;;;;28.71;82.52;99325.91;5100348;28;20055;-64
2022/06/19 07:29:18;;;;;;;6.75;1.23;;;;;;;28.49;82.09;99327.38;5101680;28;20459;-62
2022/06/19 07:32:03;;;;;;;2.15;1.15;;;;;;;27.78;80.62;99330.44;5098026;28;20549;-63
2022/06/19 07:34:48;;;;;;;1.63;0.90;;;;;;;27.58;80.32;99319.88;5097919;28;20085;-62
2022/06/19 07:37:32;;;;;;;2.22;0.75;;;;;;;28.27;79.97;99318.03;5105927;28;20044;-64
2022/06/19 07:40:18;;;;;;;4.18;0.95;;;;;;;28.29;79.79;99318.72;5104905;28;20475;-63
2022/06/19 07:43:06;;;;;;;1.10;0.68;;;;;;;28.07;80.93;99320.16;5106639;28;20058;-60
2022/06/19 07:45:51;;;;;;;1.77;0.77;;;;;;;28.71;81.68;99312.44;5105844;28;20104;-61
2022/06/19 07:51:39;;;;;;;1.45;0.70;;;;;;;29.57;78.54;99309.22;5101751;28;20126;-62
2022/06/19 07:54:24;;;;;;;2.38;1.27;;;;;;;28.46;78.46;99302.63;5098874;28;20059;-63
2022/06/19 07:57:08;;;;;;;2.70;0.95;;;;;;;28.89;77.73;99310.44;5105146;28;20075;-64
2022/06/19 07:59:52;;;;;;;3.13;1.17;;;;;;;28.47;80.30;99302.47;5104288;28;20039;-61
2022/06/19 08:02:37;;;;;;;1.70;0.82;;;;;;;29.50;80.54;99304.66;5096408;28;20071;-63
2022/06/19 08:05:25;;;;;;;2.38;0.85;;;;;;;28.27;77.96;99299.19;5103549;28;20035;-64
2022/06/19 08:08:22;;;;;;;1.70;0.90;;;;;;;29.20;79.33;99300.84;5111324;27;20050;-62
2022/06/19 08:11:07;;;;;;;2.70;0.70;;;;;;;29.70;75.23;99302.44;5105821;28;20048;-63
2022/06/19 08:13:51;;;;;;;1.88;0.75;;;;;;;30.06;76.68;99305.50;5099138;28;20040;-64
2022/06/19 08:16:36;;;;;;;4.75;1.00;;;;;;;29.30;78.46;99299.66;5096648;28;20044;-61
2022/06/19 08:19:20;;;;;;;3.38;1.00;;;;;;;29.16;76.25;99304.91;5113859;28;20154;-62
2022/06/19 08:22:05;;;;;;;3.83;0.95;;;;;;;29.28;78.09;99301.69;5100944;28;20043;-62
2022/06/19 08:24:49;;;;;;;2.28;0.90;;;;;;;30.12;75.04;99304.81;5099679;28;20039;-63
2022/06/19 08:27:37;;;;;;;2.40;0.80;;;;;;;29.95;73.11;99295.94;5099491;28;20055;-64
2022/06/19 08:30:23;;;;;;;2.35;0.88;;;;;;;30.35;73.91;99298.66;5101252;28;20047;-63
2022/06/19 08:33:07;;;;;;;2.00;0.60;;;;;;;29.93;73.64;99298.00;5102993;27;20427;-61
2022/06/19 08:35:55;;;;;;;1.63;0.82;;;;;;;30.70;73.21;99291.81;5101656;27;20040;-63
2022/06/19 08:38:51;;;;;;;3.55;0.80;;;;;;;30.05;72.71;99301.97;5109453;27;20434;-61
2022/06/19 08:42:06;;;;;;;1.48;0.80;;;;;;;30.11;72.51;99288.81;5110754;27;20263;-62
2022/06/19 08:45:16;;;;;;;2.90;0.65;;;;;;;30.72;70.17;99287.09;5109821;27;21695;-63
2022/06/19 08:48:17;;;;;;;3.00;0.55;;;;;;;30.81;70.25;99291.44;5104741;27;20078;-62
2022/06/19 08:51:27;;;;;;;1.85;0.80;;;;;;;30.64;70.71;99281.72;5100700;27;20056;-61
2022/06/19 08:54:31;;;;;;;3.15;0.60;;;;;;;30.35;70.66;99285.97;5108195;27;20537;-59
2022/06/19 08:57:28;;;;;;;5.82;1.10;;;;;;;29.90;70.50;99275.88;5107416;27;20035;-63
2022/06/19 09:00:16;;;;;;;6.20;0.93;;;;;;;30.48;70.22;99277.28;5102957;27;20490;-62
2022/06/19 09:03:23;;;;;;;1.00;0.70;;;;;;;30.50;69.81;99280.66;5112709;27;20513;-61
2022/06/19 09:06:17;;;;;;;3.25;0.70;;;;;;;31.42;69.83;99272.47;5108906;27;20106;-61
2022/06/19 09:09:11;;;;;;;6.75;1.13;;;;;;;30.26;69.37;99268.16;5103065;27;20043;-65
2022/06/19 09:12:28;;;;;;;4.40;0.82;;;;;;;31.15;71.02;99263.09;5099449;27;20040;-61
2022/06/19 09:15:16;;;;;;;5.07;0.95;;;;;;;31.41;68.66;99258.09;5101377;27;20039;-63
2022/06/19 09:18:11;;;;;;;7.70;0.65;;;;;;;31.49;69.51;99254.47;5107355;27;20047;-59
2022/06/19 09:21:05;;;;;;;1.95;0.80;;;;;;;31.17;69.78;99270.00;5106030;27;20044;-61
2022/06/19 09:24:14;;;;;;;3.53;0.93;;;;;;;31.78;67.43;99269.84;5107105;27;20523;-63
2022/06/19 09:27:01;;;;;;;1.40;0.60;;;;;;;30.95;66.77;99269.03;5099618;27;20044;-62
2022/06/19 09:29:53;;;;;;;4.07;0.90;;;;;;;31.63;67.69;99261.75;5099325;27;20426;-61
2022/06/19 09:32:49;;;;;;;2.20;0.85;;;;;;;31.98;67.80;99259.34;5097980;27;20044;-61
2022/06/19 09:35:42;;;;;;;2.45;0.95;;;;;;;31.13;67.47;99249.75;5099835;27;20040;-61
2022/06/19 09:38:39;;;;;;;3.25;0.73;;;;;;;31.39;65.77;99248.50;5099500;27;20048;-62
2022/06/19 09:41:35;;;;;;;2.10;0.57;;;;;;;31.78;66.80;99240.06;5096322;27;20054;-63
2022/06/19 09:44:39;;;;;;;2.55;0.73;;;;;;;32.29;62.69;99236.53;5097062;27;20157;-61
2022/06/19 09:47:35;;;;;;;2.08;0.70;;;;;;;31.48;61.88;99224.91;5098573;27;20040;-63
2022/06/19 09:50:27;;;;;;;5.07;0.88;;;;;;;31.59;64.34;99228.00;5103043;27;20039;-61
2022/06/19 09:53:34;;;;;;;5.32;1.25;;;;;;;31.48;62.80;99216.78;5101559;27;20486;-62
2022/06/19 09:56:33;;;;;;;4.57;0.60;;;;;;;32.11;61.39;99208.03;5098538;27;20047;-62
2022/06/19 09:59:29;;;;;;;5.75;0.70;;;;;;;31.72;60.88;99199.41;5098125;27;20047;-62
2022/06/19 10:02:49;;;;;;;2.38;0.90;;;;;;;32.41;61.73;99190.81;5098038;27;20040;-61
2022/06/19 10:05:57;;;;;;;5.10;0.80;;;;;;;32.08;62.96;99194.88;5091888;27;20048;-64
2022/06/19 10:08:52;;;;;;;3.22;0.60;;;;;;;31.97;61.28;99198.06;5097333;28;20194;-63
2022/06/19 10:11:41;;;;;;;2.78;0.70;;;;;;;32.46;60.05;99205.47;5095581;27;20071;-60
2022/06/19 10:14:42;;;;;;;3.08;1.05;;;;;;;32.75;61.67;99212.63;5100903;27;20047;-62
2022/06/19 10:17:43;;;;;;;3.78;1.10;;;;;;;32.19;62.18;99203.53;5102191;27;20035;-63
2022/06/19 10:20:33;;;;;;;4.10;0.88;;;;;;;32.25;60.66;99206.28;5103993;27;20725;-63
2022/06/19 10:23:51;;;;;;;5.90;0.90;;;;;;;32.53;60.96;99198.28;5104383;27;20412;-62
2022/06/19 10:26:41;;;;;;;4.60;0.75;;;;;;;32.98;61.21;99201.56;5101933;27;20507;-64
2022/06/19 10:29:55;;;;;;;3.80;0.90;;;;;;;33.09;58.95;99193.94;5106025;27;20043;-62
2022/06/19 10:32:49;;;;;;;2.80;0.90;;;;;;;32.71;60.06;99191.53;5102314;27;20048;-62
2022/06/19 10:35:34;;;;;;;2.97;0.90;;;;;;;32.49;60.56;99179.88;5100743;27;20050;-65
2022/06/19 10:38:37;;;;;;;2.80;0.90;;;;;;;32.45;60.01;99186.72;5105082;28;20234;-62
2022/06/19 10:45:10;;;;;;;2.25;0.77;;;;;;;32.86;59.93;99170.59;5113998;27;20039;-62
2022/06/19 10:48:25;;;;;;;6.00;1.10;;;;;;;33.53;60.75;99174.56;5104205;27;20381;-63
2022/06/19 10:51:34;;;;;;;5.25;0.68;;;;;;;33.20;57.60;99168.97;5101563;27;20084;-63
2022/06/19 10:54:41;;;;;;;2.53;0.97;;;;;;;33.09;58.08;99161.41;5104022;28;20486;-64
2022/06/19 10:57:49;;;;;;;5.00;0.60;;;;;;;32.93;55.81;99159.78;5105094;27;20764;-63
2022/06/19 11:00:34;;;;;;;2.20;0.80;;;;;;;32.95;56.22;99155.81;5104404;27;20406;-62
2022/06/19 11:07:04;;;;;;;8.65;0.73;;;;;;;32.99;53.82;99150.91;5106311;27;20043;-63
2022/06/19 11:09:54;;;;;;;4.07;0.52;;;;;;;32.76;54.60;99153.81;5101310;28;20489;-63
2022/06/19 11:12:45;;;;;;;4.50;0.77;;;;;;;32.98;53.31;99151.91;5107772;27;20122;-63
2022/06/19 11:15:33;;;;;;;1.35;0.40;;;;;;;33.15;52.51;99145.16;5110223;27;20039;-63
2022/06/19 11:18:25;;;;;;;1.80;0.80;;;;;;;33.15;52.53;99128.88;5113612;27;20051;-63
2022/06/19 11:21:17;;;;;;;4.43;0.68;;;;;;;33.37;52.50;99128.75;5112438;27;20039;-62
2022/06/19 11:24:04;;;;;;;3.10;0.70;;;;;;;32.55;50.58;99120.31;5105505;27;20063;-64
2022/06/19 11:26:49;;;;;;;4.50;0.85;;;;;;;32.77;50.17;99115.69;5104988;28;20036;-62
2022/06/19 11:29:33;;;;;;;12.00;0.85;;;;;;;32.95;51.74;99117.88;5109110;27;20158;-63
2022/06/19 11:32:20;;;;;;;7.57;0.80;;;;;;;33.42;52.04;99118.97;5099367;28;20043;-63
2022/06/19 11:35:08;;;;;;;5.45;1.23;;;;;;;33.63;49.05;99106.34;5107321;27;20059;-61
2022/06/19 11:37:56;;;;;;;3.45;0.80;;;;;;;33.40;48.69;99102.06;5109827;28;20082;-65
2022/06/19 11:40:46;;;;;;;2.88;0.50;;;;;;;33.44;50.79;99091.63;5101372;28;20305;-62
2022/06/19 11:43:32;;;;;;;2.25;0.40;;;;;;;33.49;49.38;99095.44;5100736;28;20280;-61
2022/06/19 11:46:24;;;;;;;8.63;1.17;;;;;;;33.38;49.22;99093.31;5098209;28;20051;-64
2022/06/19 11:49:36;;;;;;;2.47;0.40;;;;;;;32.92;48.47;99099.31;5097721;28;20718;-64
2022/06/19 11:52:25;;;;;;;;;;;;;;;33.53;49.57;99086.91;5117750;28;20924;-63
2022/06/19 11:55:23;;;;;;;1.60;0.28;;;;;;;32.86;48.98;99082.97;5103721;28;19928;-63
2022/06/19 11:58:26;;;;;;;3.90;0.68;;;;;;;33.37;48.51;99069.91;5102744;28;20052;-62
2022/06/19 12:01:17;;;;;;;2.97;0.60;;;;;;;32.60;46.79;99068.25;5102098;28;20058;-60
2022/06/19 12:04:06;;;;;;;3.42;0.60;;;;;;;32.75;46.30;99058.09;5090187;28;20067;-61
2022/06/19 12:06:59;;;;;;;5.15;0.60;;;;;;;32.36;48.02;99069.47;5105473;27;20051;-64
2022/06/19 12:09:52;;;;;;;9.15;0.77;;;;;;;32.32;49.30;99063.63;5111792;27;20043;-61
2022/06/19 12:12:36;;;;;;;4.47;0.90;;;;;;;32.64;46.09;99068.69;5105169;27;20047;-63
2022/06/19 12:15:29;;;;;;;11.48;0.73;;;;;;;32.74;48.86;99055.59;5104153;27;20051;-63
2022/06/19 12:18:16;;;;;;;3.40;0.50;;;;;;;32.38;47.03;99053.03;5100153;27;20048;-63
2022/06/19 12:21:23;;;;;;;3.90;0.60;;;;;;;32.81;48.05;99042.94;5098272;27;20077;-61
2022/06/19 12:24:15;;;;;;;5.20;1.45;;;;;;;32.28;46.86;99046.09;5096185;27;20068;-61
2022/06/19 12:27:01;;;;;;;3.92;1.30;;;;;;;32.63;45.96;99039.88;5097952;27;20047;-63
2022/06/19 12:29:51;;;;;;;4.00;0.50;;;;;;;32.75;45.80;99043.72;5100927;28;20641;-61
2022/06/19 12:32:46;;;;;;;7.53;0.73;;;;;;;32.56;47.21;99040.72;5098171;27;20878;-62
2022/06/19 12:35:46;;;;;;;6.43;1.20;;;;;;;32.02;44.74;99029.63;5100149;27;20055;-65
2022/06/19 12:38:34;;;;;;;6.40;2.15;;;;;;;32.38;46.30;99031.38;5099837;28;20043;-62
2022/06/19 12:41:46;;;;;;;6.30;1.77;;;;;;;31.98;44.24;99028.34;5106607;27;20039;-61
2022/06/19 12:44:49;;;;;;;14.60;2.60;;;;;;;32.09;45.34;99025.13;5101110;27;20031;-58
2022/06/19 12:48:05;;;;;;;6.45;1.73;;;;;;;32.60;45.73;99014.03;5099850;27;20036;-60
2022/06/19 12:50:59;;;;;;;5.50;1.25;;;;;;;32.57;47.50;99014.44;5101411;27;20796;-62
2022/06/19 12:54:20;;;;;;;3.35;0.50;;;;;;;32.15;45.33;99012.66;5099152;27;20086;-59
2022/06/19 12:57:14;;;;;;;8.25;0.98;;;;;;;32.12;46.01;99011.19;5099452;27;20123;-63
2022/06/19 13:00:37;;;;;;;9.27;1.45;;;;;;;32.15;45.99;99004.53;5093014;27;20462;-61
2022/06/19 13:03:39;;;;;;;12.65;0.98;;;;;;;32.43;47.50;99001.84;5070657;27;20048;-61
2022/06/19 13:06:40;;;;;;;5.07;0.77;;;;;;;32.07;45.26;99005.50;5096507;27;20648;-65
2022/06/19 13:09:36;;;;;;;3.85;0.60;;;;;;;32.59;48.69;99004.22;5098999;27;20451;-60
2022/06/19 13:12:35;;;;;;;5.28;0.70;;;;;;;31.98;47.67;98996.72;5099255;27;20431;-62
2022/06/19 13:15:22;;;;;;;2.58;0.60;;;;;;;32.53;48.32;98986.91;5099052;27;20052;-59
2022/06/19 13:18:28;;;;;;;2.97;0.75;;;;;;;32.59;49.81;98980.66;5100343;27;20044;-61
2022/06/19 13:21:36;;;;;;;7.47;1.17;;;;;;;32.79;48.72;98972.66;5095416;27;20044;-60
2022/06/19 13:24:37;;;;;;;5.97;1.30;;;;;;;32.65;47.02;98970.06;5098769;27;20048;-60
2022/06/19 13:27:49;;;;;;;8.85;1.20;;;;;;;32.16;47.30;98962.88;5097810;27;20044;-61